sensor_id;sensor_type;location;lat;lon;timestamp;temperature;humidity
13699;DHT22;6921;53.642;9.956;2023-07-28T00:00:25;16.40;99.90
13699;DHT22;6921;53.642;9.956;2023-07-28T00:02:28;16.30;99.90
13699;DHT22;6921;53.642;9.956;2023-07-28T00:04:33;16.10;99.90
13699;DHT22;6921;53.642;9.956;2023-07-28T00:06:38;16.40;99.90
13699;DHT22;6921;53.642;9.956;2023-07-28T00:08:41;16.30;99.90
13699;DHT22;6921;53.642;9.956;2023-07-28T00:10:44;16.30;99.90
13699;DHT22;6921;53.642;9.956;2023-07-28T00:12:47;16.60;99.90
13699;DHT22;6921;53.642;9.956;2023-07-28T00:14:50;16.20;99.90
13699;DHT22;6921;53.642;9.956;2023-07-28T00:16:55;16.30;99.90
13699;DHT22;6921;53.642;9.956;2023-07-28T00:18:58;16.30;99.90
13699;DHT22;6921;53.642;9.956;2023-07-28T00:21:01;16.30;99.90
13699;DHT22;6921;53.642;9.956;2023-07-28T00:23:05;16.30;99.90
13699;DHT22;6921;53.642;9.956;2023-07-28T00:25:09;16.30;99.90
13699;DHT22;6921;53.642;9.956;2023-07-28T00:27:12;16.30;99.90
13699;DHT22;6921;53.642;9.956;2023-07-28T00:29:16;16.20;99.90
13699;DHT22;6921;53.642;9.956;2023-07-28T00:31:18;16.10;99.90
13699;DHT22;6921;53.642;9.956;2023-07-28T00:33:21;16.20;99.90
13699;DHT22;6921;53.642;9.956;2023-07-28T00:35:23;16.20;99.90
13699;DHT22;6921;53.642;9.956;2023-07-28T00:37:26;16.20;99.90
13699;DHT22;6921;53.642;9.956;2023-07-28T00:39:31;16.10;99.90
13699;DHT22;6921;53.642;9.956;2023-07-28T00:41:34;16.20;99.90
13699;DHT22;6921;53.642;9.956;2023-07-28T00:43:37;16.20;99.90
13699;DHT22;6921;53.642;9.956;2023-07-28T00:45:40;16.20;99.90
13699;DHT22;6921;53.642;9.956;2023-07-28T00:47:44;16.20;99.90
13699;DHT22;6921;53.642;9.956;2023-07-28T00:49:47;16.10;99.90
13699;DHT22;6921;53.642;9.956;2023-07-28T00:51:51;16.20;99.90
13699;DHT22;6921;53.642;9.956;2023-07-28T00:53:53;16.20;99.90
13699;DHT22;6921;53.642;9.956;2023-07-28T00:55:58;16.20;99.90
13699;DHT22;6921;53.642;9.956;2023-07-28T00:58:01;16.20;99.90
13699;DHT22;6921;53.642;9.956;2023-07-28T01:00:04;16.20;99.90
13699;DHT22;6921;53.642;9.956;2023-07-28T01:02:07;16.30;99.90
13699;DHT22;6921;53.642;9.956;2023-07-28T01:04:10;16.10;99.90
13699;DHT22;6921;53.642;9.956;2023-07-28T01:06:18;16.10;99.90
13699;DHT22;6921;53.642;9.956;2023-07-28T01:08:27;16.10;99.90
13699;DHT22;6921;53.642;9.956;2023-07-28T01:10:32;16.10;99.90
13699;DHT22;6921;53.642;9.956;2023-07-28T01:12:37;16.10;99.90
13699;DHT22;6921;53.642;9.956;2023-07-28T01:14:40;16.10;99.90
13699;DHT22;6921;53.642;9.956;2023-07-28T01:16:43;16.50;99.90
13699;DHT22;6921;53.642;9.956;2023-07-28T01:18:46;16.10;99.90
13699;DHT22;6921;53.642;9.956;2023-07-28T01:20:50;16.10;99.90
13699;DHT22;6921;53.642;9.956;2023-07-28T01:23:06;16.10;99.90
13699;DHT22;6921;53.642;9.956;2023-07-28T01:25:18;16.10;99.90
13699;DHT22;6921;53.642;9.956;2023-07-28T01:27:26;16.10;99.90
13699;DHT22;6921;53.642;9.956;2023-07-28T01:29:30;16.10;99.90
13699;DHT22;6921;53.642;9.956;2023-07-28T01:31:33;16.10;99.90
13699;DHT22;6921;53.642;9.956;2023-07-28T01:33:36;16.00;99.90
13699;DHT22;6921;53.642;9.956;2023-07-28T01:37:43;15.90;99.90
13699;DHT22;6921;53.642;9.956;2023-07-28T01:41:50;16.10;99.90
13699;DHT22;6921;53.642;9.956;2023-07-28T01:43:54;16.10;99.90
13699;DHT22;6921;53.642;9.956;2023-07-28T01:45:57;16.10;99.90
13699;DHT22;6921;53.642;9.956;2023-07-28T01:48:00;16.10;99.90
13699;DHT22;6921;53.642;9.956;2023-07-28T01:50:05;16.10;99.90
13699;DHT22;6921;53.642;9.956;2023-07-28T01:52:08;16.20;99.90
13699;DHT22;6921;53.642;9.956;2023-07-28T01:54:11;16.00;99.90
13699;DHT22;6921;53.642;9.956;2023-07-28T01:56:14;17.80;99.90
13699;DHT22;6921;53.642;9.956;2023-07-28T01:58:17;16.10;99.90
13699;DHT22;6921;53.642;9.956;2023-07-28T02:00:21;16.10;99.90
13699;DHT22;6921;53.642;9.956;2023-07-28T02:02:23;16.40;99.90
13699;DHT22;6921;53.642;9.956;2023-07-28T02:04:26;16.10;99.90
13699;DHT22;6921;53.642;9.956;2023-07-28T02:06:30;16.10;99.90
13699;DHT22;6921;53.642;9.956;2023-07-28T02:08:33;16.20;99.90
13699;DHT22;6921;53.642;9.956;2023-07-28T02:10:36;16.10;99.90
13699;DHT22;6921;53.642;9.956;2023-07-28T02:12:39;16.10;99.90
13699;DHT22;6921;53.642;9.956;2023-07-28T02:14:42;16.10;99.90
13699;DHT22;6921;53.642;9.956;2023-07-28T02:16:47;16.10;99.90
13699;DHT22;6921;53.642;9.956;2023-07-28T02:18:50;15.80;99.90
13699;DHT22;6921;53.642;9.956;2023-07-28T02:20:53;16.10;99.90
13699;DHT22;6921;53.642;9.956;2023-07-28T02:22:56;16.20;99.90
13699;DHT22;6921;53.642;9.956;2023-07-28T02:24:59;16.20;99.90
13699;DHT22;6921;53.642;9.956;2023-07-28T02:27:04;16.40;99.90
13699;DHT22;6921;53.642;9.956;2023-07-28T02:29:07;16.10;99.90
13699;DHT22;6921;53.642;9.956;2023-07-28T02:31:10;16.10;99.90
13699;DHT22;6921;53.642;9.956;2023-07-28T02:33:14;16.00;99.90
13699;DHT22;6921;53.642;9.956;2023-07-28T02:35:17;16.10;99.90
13699;DHT22;6921;53.642;9.956;2023-07-28T02:37:22;16.10;99.90
13699;DHT22;6921;53.642;9.956;2023-07-28T02:39:25;16.30;99.90
13699;DHT22;6921;53.642;9.956;2023-07-28T02:41:28;16.00;99.90
13699;DHT22;6921;53.642;9.956;2023-07-28T02:43:31;16.10;99.90
13699;DHT22;6921;53.642;9.956;2023-07-28T02:45:34;16.00;99.90
13699;DHT22;6921;53.642;9.956;2023-07-28T02:47:37;16.10;99.90
13699;DHT22;6921;53.642;9.956;2023-07-28T02:49:42;16.20;99.90
13699;DHT22;6921;53.642;9.956;2023-07-28T02:51:45;16.00;99.90
13699;DHT22;6921;53.642;9.956;2023-07-28T02:53:47;16.00;99.90
13699;DHT22;6921;53.642;9.956;2023-07-28T02:55:50;15.50;99.90
13699;DHT22;6921;53.642;9.956;2023-07-28T02:57:54;16.00;99.90
13699;DHT22;6921;53.642;9.956;2023-07-28T02:59:57;15.90;99.90
13699;DHT22;6921;53.642;9.956;2023-07-28T03:02:00;16.00;99.90
13699;DHT22;6921;53.642;9.956;2023-07-28T03:04:03;16.00;99.90
13699;DHT22;6921;53.642;9.956;2023-07-28T03:06:08;16.00;99.90
13699;DHT22;6921;53.642;9.956;2023-07-28T03:08:11;16.00;99.90
13699;DHT22;6921;53.642;9.956;2023-07-28T03:10:14;16.00;99.90
13699;DHT22;6921;53.642;9.956;2023-07-28T03:12:18;16.40;99.90
13699;DHT22;6921;53.642;9.956;2023-07-28T03:14:21;15.90;99.90
13699;DHT22;6921;53.642;9.956;2023-07-28T03:16:24;16.80;99.90
13699;DHT22;6921;53.642;9.956;2023-07-28T03:18:27;16.10;99.90
13699;DHT22;6921;53.642;9.956;2023-07-28T03:20:30;16.10;99.90
13699;DHT22;6921;53.642;9.956;2023-07-28T03:22:35;16.20;99.90
13699;DHT22;6921;53.642;9.956;2023-07-28T03:24:38;16.00;99.90
13699;DHT22;6921;53.642;9.956;2023-07-28T03:26:41;16.00;99.90
13699;DHT22;6921;53.642;9.956;2023-07-28T03:28:44;16.00;99.90
13699;DHT22;6921;53.642;9.956;2023-07-28T03:30:47;16.00;99.90
13699;DHT22;6921;53.642;9.956;2023-07-28T03:34:54;16.10;99.90
13699;DHT22;6921;53.642;9.956;2023-07-28T03:36:57;17.80;99.90
13699;DHT22;6921;53.642;9.956;2023-07-28T03:39:02;16.00;99.90
13699;DHT22;6921;53.642;9.956;2023-07-28T03:41:05;16.10;99.90
13699;DHT22;6921;53.642;9.956;2023-07-28T03:43:09;16.00;99.90
13699;DHT22;6921;53.642;9.956;2023-07-28T03:45:12;16.10;99.90
13699;DHT22;6921;53.642;9.956;2023-07-28T03:47:15;16.20;99.90
13699;DHT22;6921;53.642;9.956;2023-07-28T03:49:18;16.00;99.90
13699;DHT22;6921;53.642;9.956;2023-07-28T03:51:21;16.00;99.90
13699;DHT22;6921;53.642;9.956;2023-07-28T03:53:24;16.10;99.90
13699;DHT22;6921;53.642;9.956;2023-07-28T03:55:29;16.00;99.90
13699;DHT22;6921;53.642;9.956;2023-07-28T03:57:32;16.10;99.90
13699;DHT22;6921;53.642;9.956;2023-07-28T03:59:35;16.10;99.90
13699;DHT22;6921;53.642;9.956;2023-07-28T04:01:38;16.00;99.90
13699;DHT22;6921;53.642;9.956;2023-07-28T04:03:42;16.10;99.90
13699;DHT22;6921;53.642;9.956;2023-07-28T04:05:45;15.70;99.90
13699;DHT22;6921;53.642;9.956;2023-07-28T04:07:49;16.00;99.90
13699;DHT22;6921;53.642;9.956;2023-07-28T04:09:52;16.00;99.90
13699;DHT22;6921;53.642;9.956;2023-07-28T04:11:56;16.00;99.90
13699;DHT22;6921;53.642;9.956;2023-07-28T04:13:59;16.00;99.90
13699;DHT22;6921;53.642;9.956;2023-07-28T04:16:02;16.00;99.90
13699;DHT22;6921;53.642;9.956;2023-07-28T04:18:05;16.00;99.90
13699;DHT22;6921;53.642;9.956;2023-07-28T04:20:09;16.00;99.90
13699;DHT22;6921;53.642;9.956;2023-07-28T04:22:13;16.10;99.90
13699;DHT22;6921;53.642;9.956;2023-07-28T04:24:18;16.10;99.90
13699;DHT22;6921;53.642;9.956;2023-07-28T04:26:22;16.00;99.90
13699;DHT22;6921;53.642;9.956;2023-07-28T04:28:27;16.10;99.90
13699;DHT22;6921;53.642;9.956;2023-07-28T04:30:30;16.10;99.90
13699;DHT22;6921;53.642;9.956;2023-07-28T04:32:33;16.10;99.90
13699;DHT22;6921;53.642;9.956;2023-07-28T04:34:37;16.10;99.90
13699;DHT22;6921;53.642;9.956;2023-07-28T04:36:40;16.20;99.90
13699;DHT22;6921;53.642;9.956;2023-07-28T04:38:43;15.80;99.90
13699;DHT22;6921;53.642;9.956;2023-07-28T04:40:46;16.10;99.90
13699;DHT22;6921;53.642;9.956;2023-07-28T04:42:49;16.10;99.90
13699;DHT22;6921;53.642;9.956;2023-07-28T04:47:00;16.10;99.90
13699;DHT22;6921;53.642;9.956;2023-07-28T04:49:03;16.10;99.90
13699;DHT22;6921;53.642;9.956;2023-07-28T04:51:06;16.20;99.90
13699;DHT22;6921;53.642;9.956;2023-07-28T04:53:09;15.70;99.90
13699;DHT22;6921;53.642;9.956;2023-07-28T04:55:12;16.60;99.90
13699;DHT22;6921;53.642;9.956;2023-07-28T04:57:16;16.20;99.90
13699;DHT22;6921;53.642;9.956;2023-07-28T04:59:19;16.20;99.90
13699;DHT22;6921;53.642;9.956;2023-07-28T05:01:26;16.10;99.90
13699;DHT22;6921;53.642;9.956;2023-07-28T05:03:29;16.10;99.90
13699;DHT22;6921;53.642;9.956;2023-07-28T05:05:32;16.30;99.90
13699;DHT22;6921;53.642;9.956;2023-07-28T05:07:35;16.30;99.90
13699;DHT22;6921;53.642;9.956;2023-07-28T05:09:39;16.20;99.90
13699;DHT22;6921;53.642;9.956;2023-07-28T05:11:43;16.20;99.90
13699;DHT22;6921;53.642;9.956;2023-07-28T05:13:49;15.90;99.90
13699;DHT22;6921;53.642;9.956;2023-07-28T05:15:52;16.20;99.90
13699;DHT22;6921;53.642;9.956;2023-07-28T05:17:57;16.40;99.90
13699;DHT22;6921;53.642;9.956;2023-07-28T05:20:01;16.30;99.90
13699;DHT22;6921;53.642;9.956;2023-07-28T05:22:05;16.20;99.90
13699;DHT22;6921;53.642;9.956;2023-07-28T05:24:10;16.40;99.90
13699;DHT22;6921;53.642;9.956;2023-07-28T05:26:13;16.40;99.90
13699;DHT22;6921;53.642;9.956;2023-07-28T05:28:17;16.40;99.90
13699;DHT22;6921;53.642;9.956;2023-07-28T05:30:20;16.60;99.90
13699;DHT22;6921;53.642;9.956;2023-07-28T05:32:27;15.90;99.90
13699;DHT22;6921;53.642;9.956;2023-07-28T05:34:32;15.60;99.90
13699;DHT22;6921;53.642;9.956;2023-07-28T05:36:36;16.50;99.90
13699;DHT22;6921;53.642;9.956;2023-07-28T05:38:40;16.60;99.90
13699;DHT22;6921;53.642;9.956;2023-07-28T05:40:45;16.40;99.90
13699;DHT22;6921;53.642;9.956;2023-07-28T05:42:49;16.50;99.90
13699;DHT22;6921;53.642;9.956;2023-07-28T05:44:53;16.60;99.90
13699;DHT22;6921;53.642;9.956;2023-07-28T05:46:56;16.50;99.90
13699;DHT22;6921;53.642;9.956;2023-07-28T05:49:00;16.50;99.90
13699;DHT22;6921;53.642;9.956;2023-07-28T05:51:05;16.60;99.90
13699;DHT22;6921;53.642;9.956;2023-07-28T05:53:10;16.60;99.90
13699;DHT22;6921;53.642;9.956;2023-07-28T05:55:13;16.60;99.90
13699;DHT22;6921;53.642;9.956;2023-07-28T05:57:16;16.90;99.90
13699;DHT22;6921;53.642;9.956;2023-07-28T05:59:20;16.80;99.90
13699;DHT22;6921;53.642;9.956;2023-07-28T06:01:23;16.60;99.90
13699;DHT22;6921;53.642;9.956;2023-07-28T06:03:28;16.80;99.90
13699;DHT22;6921;53.642;9.956;2023-07-28T06:05:31;17.00;99.90
13699;DHT22;6921;53.642;9.956;2023-07-28T06:07:36;16.60;99.90
13699;DHT22;6921;53.642;9.956;2023-07-28T06:09:39;17.20;99.90
13699;DHT22;6921;53.642;9.956;2023-07-28T06:11:44;16.70;99.90
13699;DHT22;6921;53.642;9.956;2023-07-28T06:13:48;16.80;99.90
13699;DHT22;6921;53.642;9.956;2023-07-28T06:15:53;17.10;99.90
13699;DHT22;6921;53.642;9.956;2023-07-28T06:17:58;17.50;99.90
13699;DHT22;6921;53.642;9.956;2023-07-28T06:20:01;16.80;99.90
13699;DHT22;6921;53.642;9.956;2023-07-28T06:22:05;16.90;99.90
13699;DHT22;6921;53.642;9.956;2023-07-28T06:24:10;16.80;99.90
13699;DHT22;6921;53.642;9.956;2023-07-28T06:26:14;16.90;99.90
13699;DHT22;6921;53.642;9.956;2023-07-28T06:28:18;17.00;99.90
13699;DHT22;6921;53.642;9.956;2023-07-28T06:30:22;17.10;99.90
13699;DHT22;6921;53.642;9.956;2023-07-28T06:32:24;16.80;99.90
13699;DHT22;6921;53.642;9.956;2023-07-28T06:34:28;17.20;99.90
13699;DHT22;6921;53.642;9.956;2023-07-28T06:36:31;17.20;99.90
13699;DHT22;6921;53.642;9.956;2023-07-28T06:38:34;17.30;99.90
13699;DHT22;6921;53.642;9.956;2023-07-28T06:40:39;17.10;99.90
13699;DHT22;6921;53.642;9.956;2023-07-28T06:42:45;17.00;99.90
13699;DHT22;6921;53.642;9.956;2023-07-28T06:44:49;17.00;99.90
13699;DHT22;6921;53.642;9.956;2023-07-28T06:46:52;17.00;99.90
13699;DHT22;6921;53.642;9.956;2023-07-28T06:48:56;17.00;99.90
13699;DHT22;6921;53.642;9.956;2023-07-28T06:50:59;17.00;99.90
13699;DHT22;6921;53.642;9.956;2023-07-28T06:53:03;17.10;99.90
13699;DHT22;6921;53.642;9.956;2023-07-28T06:55:06;17.30;99.90
13699;DHT22;6921;53.642;9.956;2023-07-28T06:57:13;16.60;99.90
13699;DHT22;6921;53.642;9.956;2023-07-28T06:59:16;17.20;99.90
13699;DHT22;6921;53.642;9.956;2023-07-28T07:01:23;17.30;99.90
13699;DHT22;6921;53.642;9.956;2023-07-28T07:03:26;17.70;99.90
13699;DHT22;6921;53.642;9.956;2023-07-28T07:05:29;17.40;99.90
13699;DHT22;6921;53.642;9.956;2023-07-28T07:07:33;17.40;99.90
13699;DHT22;6921;53.642;9.956;2023-07-28T07:09:37;18.20;99.90
13699;DHT22;6921;53.642;9.956;2023-07-28T07:11:41;17.50;99.90
13699;DHT22;6921;53.642;9.956;2023-07-28T07:13:45;17.70;99.90
13699;DHT22;6921;53.642;9.956;2023-07-28T07:15:47;19.60;99.90
13699;DHT22;6921;53.642;9.956;2023-07-28T07:17:51;17.60;99.90
13699;DHT22;6921;53.642;9.956;2023-07-28T07:19:57;17.70;99.90
13699;DHT22;6921;53.642;9.956;2023-07-28T07:22:00;17.40;99.90
13699;DHT22;6921;53.642;9.956;2023-07-28T07:24:04;17.70;99.90
13699;DHT22;6921;53.642;9.956;2023-07-28T07:26:07;17.60;99.90
13699;DHT22;6921;53.642;9.956;2023-07-28T07:28:11;17.70;99.90
13699;DHT22;6921;53.642;9.956;2023-07-28T07:30:19;17.70;99.90
13699;DHT22;6921;53.642;9.956;2023-07-28T07:32:22;17.80;99.90
13699;DHT22;6921;53.642;9.956;2023-07-28T07:34:25;17.80;99.90
13699;DHT22;6921;53.642;9.956;2023-07-28T07:36:29;17.80;99.90
13699;DHT22;6921;53.642;9.956;2023-07-28T07:38:32;17.80;99.90
13699;DHT22;6921;53.642;9.956;2023-07-28T07:40:35;17.80;99.90
13699;DHT22;6921;53.642;9.956;2023-07-28T07:42:43;19.30;99.90
13699;DHT22;6921;53.642;9.956;2023-07-28T07:44:47;17.80;99.90
13699;DHT22;6921;53.642;9.956;2023-07-28T07:46:52;17.80;99.90
13699;DHT22;6921;53.642;9.956;2023-07-28T07:48:54;17.80;99.90
13699;DHT22;6921;53.642;9.956;2023-07-28T07:50:57;17.80;99.90
13699;DHT22;6921;53.642;9.956;2023-07-28T07:53:00;17.70;99.90
13699;DHT22;6921;53.642;9.956;2023-07-28T07:55:04;17.70;99.90
13699;DHT22;6921;53.642;9.956;2023-07-28T07:57:07;17.70;99.90
13699;DHT22;6921;53.642;9.956;2023-07-28T07:59:10;17.70;99.90
13699;DHT22;6921;53.642;9.956;2023-07-28T08:01:14;17.80;99.90
13699;DHT22;6921;53.642;9.956;2023-07-28T08:03:18;17.60;99.90
13699;DHT22;6921;53.642;9.956;2023-07-28T08:05:22;17.70;99.90
13699;DHT22;6921;53.642;9.956;2023-07-28T08:07:25;17.80;99.90
13699;DHT22;6921;53.642;9.956;2023-07-28T08:09:29;17.90;99.90
13699;DHT22;6921;53.642;9.956;2023-07-28T08:11:32;18.00;99.90
13699;DHT22;6921;53.642;9.956;2023-07-28T08:13:36;17.90;99.90
13699;DHT22;6921;53.642;9.956;2023-07-28T08:15:38;18.00;99.90
13699;DHT22;6921;53.642;9.956;2023-07-28T08:17:41;18.00;99.90
13699;DHT22;6921;53.642;9.956;2023-07-28T08:19:45;18.20;99.90
13699;DHT22;6921;53.642;9.956;2023-07-28T08:21:48;18.20;99.90
13699;DHT22;6921;53.642;9.956;2023-07-28T08:25:56;18.20;99.90
13699;DHT22;6921;53.642;9.956;2023-07-28T08:28:00;18.20;99.90
13699;DHT22;6921;53.642;9.956;2023-07-28T08:30:04;18.40;99.90
13699;DHT22;6921;53.642;9.956;2023-07-28T08:32:09;18.50;99.90
13699;DHT22;6921;53.642;9.956;2023-07-28T08:34:13;18.70;99.90
13699;DHT22;6921;53.642;9.956;2023-07-28T08:36:19;18.90;99.90
13699;DHT22;6921;53.642;9.956;2023-07-28T08:38:22;18.60;99.90
13699;DHT22;6921;53.642;9.956;2023-07-28T08:40:26;19.10;99.90
13699;DHT22;6921;53.642;9.956;2023-07-28T08:42:30;18.50;99.90
13699;DHT22;6921;53.642;9.956;2023-07-28T08:44:34;18.30;99.90
13699;DHT22;6921;53.642;9.956;2023-07-28T08:46:37;18.40;99.90
13699;DHT22;6921;53.642;9.956;2023-07-28T08:48:41;18.40;99.90
13699;DHT22;6921;53.642;9.956;2023-07-28T08:50:44;18.70;99.90
13699;DHT22;6921;53.642;9.956;2023-07-28T08:52:49;19.00;99.90
13699;DHT22;6921;53.642;9.956;2023-07-28T08:54:52;18.30;99.90
13699;DHT22;6921;53.642;9.956;2023-07-28T08:56:54;18.40;99.90
13699;DHT22;6921;53.642;9.956;2023-07-28T08:58:58;18.40;99.90
13699;DHT22;6921;53.642;9.956;2023-07-28T09:03:08;18.30;99.90
13699;DHT22;6921;53.642;9.956;2023-07-28T09:05:17;18.40;99.90
13699;DHT22;6921;53.642;9.956;2023-07-28T09:07:21;18.40;99.90
13699;DHT22;6921;53.642;9.956;2023-07-28T09:09:32;18.40;99.90
13699;DHT22;6921;53.642;9.956;2023-07-28T09:11:44;18.40;99.90
13699;DHT22;6921;53.642;9.956;2023-07-28T09:13:48;18.70;99.90
13699;DHT22;6921;53.642;9.956;2023-07-28T09:15:54;18.60;99.90
13699;DHT22;6921;53.642;9.956;2023-07-28T09:18:00;18.60;99.90
13699;DHT22;6921;53.642;9.956;2023-07-28T09:20:04;18.70;99.90
13699;DHT22;6921;53.642;9.956;2023-07-28T09:22:07;18.40;99.90
13699;DHT22;6921;53.642;9.956;2023-07-28T09:24:13;18.90;99.90
13699;DHT22;6921;53.642;9.956;2023-07-28T09:26:19;19.00;99.90
13699;DHT22;6921;53.642;9.956;2023-07-28T09:28:22;18.90;99.90
13699;DHT22;6921;53.642;9.956;2023-07-28T09:30:26;18.80;99.90
13699;DHT22;6921;53.642;9.956;2023-07-28T09:32:31;18.80;99.90
13699;DHT22;6921;53.642;9.956;2023-07-28T09:34:38;19.00;99.90
13699;DHT22;6921;53.642;9.956;2023-07-28T09:36:42;18.90;99.90
13699;DHT22;6921;53.642;9.956;2023-07-28T09:38:45;18.90;99.90
13699;DHT22;6921;53.642;9.956;2023-07-28T09:40:51;19.00;99.90
13699;DHT22;6921;53.642;9.956;2023-07-28T09:42:57;19.00;99.90
13699;DHT22;6921;53.642;9.956;2023-07-28T09:45:01;19.10;99.90
13699;DHT22;6921;53.642;9.956;2023-07-28T09:47:06;19.40;99.90
13699;DHT22;6921;53.642;9.956;2023-07-28T09:49:10;19.20;99.90
13699;DHT22;6921;53.642;9.956;2023-07-28T09:51:18;19.20;99.90
13699;DHT22;6921;53.642;9.956;2023-07-28T09:53:25;19.20;99.90
13699;DHT22;6921;53.642;9.956;2023-07-28T09:55:31;19.30;99.90
13699;DHT22;6921;53.642;9.956;2023-07-28T09:57:38;19.40;99.90
13699;DHT22;6921;53.642;9.956;2023-07-28T09:59:45;19.30;99.90
13699;DHT22;6921;53.642;9.956;2023-07-28T10:01:49;19.30;99.90
13699;DHT22;6921;53.642;9.956;2023-07-28T10:03:52;19.40;99.90
13699;DHT22;6921;53.642;9.956;2023-07-28T10:05:55;19.30;99.90
13699;DHT22;6921;53.642;9.956;2023-07-28T10:07:59;19.90;99.90
13699;DHT22;6921;53.642;9.956;2023-07-28T10:10:07;19.60;99.90
13699;DHT22;6921;53.642;9.956;2023-07-28T10:12:18;19.80;99.90
13699;DHT22;6921;53.642;9.956;2023-07-28T10:14:27;19.90;99.90
13699;DHT22;6921;53.642;9.956;2023-07-28T10:16:39;20.00;99.90
13699;DHT22;6921;53.642;9.956;2023-07-28T10:18:51;20.10;99.90
13699;DHT22;6921;53.642;9.956;2023-07-28T10:21:04;20.20;99.90
13699;DHT22;6921;53.642;9.956;2023-07-28T10:23:12;20.50;99.90
13699;DHT22;6921;53.642;9.956;2023-07-28T10:25:22;20.20;99.90
13699;DHT22;6921;53.642;9.956;2023-07-28T10:27:30;20.10;99.90
13699;DHT22;6921;53.642;9.956;2023-07-28T10:29:37;19.10;99.90
13699;DHT22;6921;53.642;9.956;2023-07-28T10:31:51;20.00;99.90
13699;DHT22;6921;53.642;9.956;2023-07-28T10:33:55;19.90;99.90
13699;DHT22;6921;53.642;9.956;2023-07-28T10:35:58;19.70;99.90
13699;DHT22;6921;53.642;9.956;2023-07-28T10:38:29;19.90;99.90
13699;DHT22;6921;53.642;9.956;2023-07-28T10:40:34;20.20;99.90
13699;DHT22;6921;53.642;9.956;2023-07-28T10:42:38;19.90;99.90
13699;DHT22;6921;53.642;9.956;2023-07-28T10:44:41;20.00;99.90
13699;DHT22;6921;53.642;9.956;2023-07-28T10:46:44;19.90;99.90
13699;DHT22;6921;53.642;9.956;2023-07-28T10:48:49;19.90;99.90
13699;DHT22;6921;53.642;9.956;2023-07-28T10:50:52;20.00;99.90
13699;DHT22;6921;53.642;9.956;2023-07-28T10:52:55;20.00;99.90
13699;DHT22;6921;53.642;9.956;2023-07-28T10:54:59;20.10;99.90
13699;DHT22;6921;53.642;9.956;2023-07-28T10:57:02;20.10;99.90
13699;DHT22;6921;53.642;9.956;2023-07-28T10:59:06;20.30;99.90
13699;DHT22;6921;53.642;9.956;2023-07-28T11:01:09;20.10;99.90
13699;DHT22;6921;53.642;9.956;2023-07-28T11:03:13;20.10;99.90
13699;DHT22;6921;53.642;9.956;2023-07-28T11:05:21;20.20;99.90
13699;DHT22;6921;53.642;9.956;2023-07-28T11:07:24;20.00;99.90
13699;DHT22;6921;53.642;9.956;2023-07-28T11:09:29;20.10;99.90
13699;DHT22;6921;53.642;9.956;2023-07-28T11:11:32;19.90;99.90
13699;DHT22;6921;53.642;9.956;2023-07-28T11:13:36;20.10;99.90
13699;DHT22;6921;53.642;9.956;2023-07-28T11:15:42;19.90;99.90
13699;DHT22;6921;53.642;9.956;2023-07-28T11:17:47;19.90;99.90
13699;DHT22;6921;53.642;9.956;2023-07-28T11:19:50;20.10;99.90
13699;DHT22;6921;53.642;9.956;2023-07-28T11:21:55;20.00;99.90
13699;DHT22;6921;53.642;9.956;2023-07-28T11:23:59;20.10;99.90
13699;DHT22;6921;53.642;9.956;2023-07-28T11:26:02;20.60;99.90
13699;DHT22;6921;53.642;9.956;2023-07-28T11:28:09;20.40;99.90
13699;DHT22;6921;53.642;9.956;2023-07-28T11:30:14;20.50;99.90
13699;DHT22;6921;53.642;9.956;2023-07-28T11:32:17;20.50;99.90
13699;DHT22;6921;53.642;9.956;2023-07-28T11:34:20;20.60;99.90
13699;DHT22;6921;53.642;9.956;2023-07-28T11:36:24;20.70;99.90
13699;DHT22;6921;53.642;9.956;2023-07-28T11:38:29;21.10;99.90
13699;DHT22;6921;53.642;9.956;2023-07-28T11:40:33;20.70;99.90
13699;DHT22;6921;53.642;9.956;2023-07-28T11:42:37;20.70;99.90
13699;DHT22;6921;53.642;9.956;2023-07-28T11:44:41;20.60;99.90
13699;DHT22;6921;53.642;9.956;2023-07-28T11:46:44;20.50;99.90
13699;DHT22;6921;53.642;9.956;2023-07-28T11:48:47;20.60;99.90
13699;DHT22;6921;53.642;9.956;2023-07-28T11:50:50;20.60;99.90
13699;DHT22;6921;53.642;9.956;2023-07-28T11:52:55;20.70;99.90
13699;DHT22;6921;53.642;9.956;2023-07-28T11:55:01;21.30;99.90
13699;DHT22;6921;53.642;9.956;2023-07-28T11:57:07;21.30;99.90
13699;DHT22;6921;53.642;9.956;2023-07-28T11:59:11;20.60;99.90
13699;DHT22;6921;53.642;9.956;2023-07-28T12:01:14;20.50;99.90
13699;DHT22;6921;53.642;9.956;2023-07-28T12:03:17;20.60;99.90
13699;DHT22;6921;53.642;9.956;2023-07-28T12:05:22;21.00;99.90
13699;DHT22;6921;53.642;9.956;2023-07-28T12:07:29;20.60;99.90
13699;DHT22;6921;53.642;9.956;2023-07-28T12:09:33;20.90;99.90
13699;DHT22;6921;53.642;9.956;2023-07-28T12:11:42;21.10;99.90
13699;DHT22;6921;53.642;9.956;2023-07-28T12:13:49;21.20;99.90
13699;DHT22;6921;53.642;9.956;2023-07-28T12:18:18;21.60;99.90
13699;DHT22;6921;53.642;9.956;2023-07-28T12:20:24;21.50;99.90
13699;DHT22;6921;53.642;9.956;2023-07-28T12:22:26;21.60;99.90
13699;DHT22;6921;53.642;9.956;2023-07-28T12:24:29;21.80;99.90
13699;DHT22;6921;53.642;9.956;2023-07-28T12:26:33;22.00;99.90
13699;DHT22;6921;53.642;9.956;2023-07-28T12:28:40;21.90;99.90
13699;DHT22;6921;53.642;9.956;2023-07-28T12:30:45;21.90;99.90
13699;DHT22;6921;53.642;9.956;2023-07-28T12:32:50;22.00;99.90
13699;DHT22;6921;53.642;9.956;2023-07-28T12:34:57;21.80;99.90
13699;DHT22;6921;53.642;9.956;2023-07-28T12:37:00;21.80;99.90
13699;DHT22;6921;53.642;9.956;2023-07-28T12:39:03;21.90;99.90
13699;DHT22;6921;53.642;9.956;2023-07-28T12:41:10;22.00;99.90
13699;DHT22;6921;53.642;9.956;2023-07-28T12:43:13;21.90;99.90
13699;DHT22;6921;53.642;9.956;2023-07-28T12:45:21;22.00;99.90
13699;DHT22;6921;53.642;9.956;2023-07-28T12:47:24;21.80;99.90
13699;DHT22;6921;53.642;9.956;2023-07-28T12:49:26;21.90;99.90
13699;DHT22;6921;53.642;9.956;2023-07-28T12:51:30;21.90;99.90
13699;DHT22;6921;53.642;9.956;2023-07-28T12:53:33;21.80;99.90
13699;DHT22;6921;53.642;9.956;2023-07-28T12:55:36;21.70;99.90
13699;DHT22;6921;53.642;9.956;2023-07-28T12:58:00;21.80;99.90
13699;DHT22;6921;53.642;9.956;2023-07-28T13:00:04;21.80;99.90
13699;DHT22;6921;53.642;9.956;2023-07-28T13:02:18;22.00;99.90
13699;DHT22;6921;53.642;9.956;2023-07-28T13:04:21;22.00;99.90
13699;DHT22;6921;53.642;9.956;2023-07-28T13:06:27;21.90;99.90
13699;DHT22;6921;53.642;9.956;2023-07-28T13:08:30;21.60;99.90
13699;DHT22;6921;53.642;9.956;2023-07-28T13:10:36;21.50;99.90
13699;DHT22;6921;53.642;9.956;2023-07-28T13:12:42;21.30;99.90
13699;DHT22;6921;53.642;9.956;2023-07-28T13:14:49;21.10;99.90
13699;DHT22;6921;53.642;9.956;2023-07-28T13:16:52;21.30;99.90
13699;DHT22;6921;53.642;9.956;2023-07-28T13:18:56;21.20;99.90
13699;DHT22;6921;53.642;9.956;2023-07-28T13:21:01;21.20;99.90
13699;DHT22;6921;53.642;9.956;2023-07-28T13:23:04;21.50;99.90
13699;DHT22;6921;53.642;9.956;2023-07-28T13:25:07;20.70;99.90
13699;DHT22;6921;53.642;9.956;2023-07-28T13:27:11;20.90;99.90
13699;DHT22;6921;53.642;9.956;2023-07-28T13:29:14;21.30;99.90
13699;DHT22;6921;53.642;9.956;2023-07-28T13:31:17;21.40;99.90